^^
Datos históricos de la estación: Murcia-Puente Tocinos
Diario Informe para Diciembre 2, 2019 Unidades:  Métrico    Ingés   Ambas
Diario Semanal Mensual Anual
  Máxima: Mínima: Promedio:
Temperatura: 14.9 °C 12.6 °C 13.4 °C
Punto de rocio: 12.5 °C 9.9 °C 11.3 °C
Humedad: 96% 79% 88%
Velocidad viento: 18km/h 0km/h 6.7km/h
Racha viento: 33.8km/h - -
Viento- - ESE
Presión: 1013.4 hPa 1007.7 hPa -
Precipitación: 9.7 mm    
 
 
Tabla de datos para Diciembre 2, 2019
Hora Temperatura Punto de rocio Presión Viento Velocidad viento Racha viento Humedad Intensidad lluvia(por hora) Nubes
00:04 12.9 °C 10.4 °C 1008.9 hPa NNE 6.6 km/h 11.1 km/h 85% 0.0 mm
00:09 12.9 °C 10.4 °C 1008.9 hPa NNE 6.5 km/h 11.3 km/h 85% 0.0 mm
00:14 12.9 °C 10.4 °C 1008.9 hPa NE 5.2 km/h 8 km/h 85% 0.0 mm
00:19 12.9 °C 10.4 °C 1008.9 hPa NE 4.7 km/h 8 km/h 85% 0.0 mm
00:24 12.9 °C 10.4 °C 1009.0 hPa NE 1.3 km/h 5 km/h 85% 0.0 mm
00:29 12.9 °C 10.4 °C 1009.0 hPa Calm   7.6 km/h 85% 0.0 mm
00:34 12.9 °C 10.4 °C 1009.0 hPa ONO 2.8 km/h 8.4 km/h 85% 0.0 mm
00:39 12.9 °C 10.4 °C 1009.0 hPa ONO 3.9 km/h 8 km/h 85% 0.0 mm
00:44 12.9 °C 10.4 °C 1009.0 hPa Oeste 3.9 km/h 6.4 km/h 85% 0.0 mm
00:49 12.9 °C 10.3 °C 1009.0 hPa Oeste 3.9 km/h 6.4 km/h 84.1% 0.0 mm
00:54 12.9 °C 10.3 °C 1009.0 hPa ONO 3.2 km/h 9.5 km/h 84% 0.0 mm
00:59 13 °C 10.3 °C 1008.9 hPa NNE 2.9 km/h 9.7 km/h 83.9% 0.0 mm
01:04 13.1 °C 10.3 °C 1008.9 hPa NE 3.1 km/h 9.7 km/h 83% 0.0 mm
01:09 13.1 °C 10.3 °C 1008.9 hPa ENE 3.2 km/h 8 km/h 83% 0.0 mm
01:14 13.2 °C 10.4 °C 1008.8 hPa NE 3.2 km/h 13 km/h 83% 0.0 mm
01:19 13.2 °C 10.4 °C 1008.8 hPa NNE 3.2 km/h 12.9 km/h 83% 0.0 mm
01:24 13.3 °C 10.5 °C 1008.8 hPa NE 5.1 km/h 14.8 km/h 83% 0.0 mm
01:29 13.3 °C 10.5 °C 1008.7 hPa NE 5.8 km/h 14.8 km/h 83% 0.0 mm
01:34 13.4 °C 10.6 °C 1008.7 hPa NE 8.4 km/h 14.8 km/h 83% 0.0 mm
01:39 13.3 °C 10.6 °C 1008.7 hPa NE 9.5 km/h 14.8 km/h 83.4% 0.0 mm
01:44 13.3 °C 10.7 °C 1008.6 hPa NE 7.6 km/h 20.1 km/h 84% 0.0 mm
01:49 13.3 °C 10.7 °C 1008.6 hPa NE 6.9 km/h 20.9 km/h 84% 0.0 mm
01:54 13.3 °C 10.6 °C 1008.6 hPa NE 8.8 km/h 16.1 km/h 84% 0.0 mm
01:59 13.2 °C 10.7 °C 1008.5 hPa NE 9.5 km/h 14.5 km/h 84.8% 0.0 mm
02:04 13.2 °C 10.7 °C 1008.5 hPa NE 7.5 km/h 11.3 km/h 85% 0.0 mm
02:09 13.2 °C 10.7 °C 1008.5 hPa NE 6.9 km/h 14.8 km/h 85.2% 0.0 mm
02:14 13.1 °C 10.8 °C 1008.4 hPa NE 8 km/h 16.7 km/h 86% 0.0 mm
02:19 13.2 °C 10.9 °C 1008.4 hPa NE 8.4 km/h 16.1 km/h 86.5% 0.0 mm
02:24 13.2 °C 11.1 °C 1008.5 hPa NE 9.2 km/h 18.5 km/h 87% 0.0 mm
02:29 13.2 °C 11.1 °C 1008.5 hPa NE 9.5 km/h 19.3 km/h 87% 0.0 mm
02:34 13.2 °C 11.2 °C 1008.5 hPa NNE 9.8 km/h 17.2 km/h 87.5% 0.0 mm
02:39 13.1 °C 11.2 °C 1008.5 hPa NNE 10 km/h 17.7 km/h 88% 0.0 mm
02:44 13.1 °C 11.1 °C 1008.3 hPa NNE 9.1 km/h 14.5 km/h 88% 0.0 mm
02:49 13 °C 11.1 °C 1008.3 hPa NNE 8.7 km/h 11.9 km/h 88% 0.0 mm
02:54 12.9 °C 11.1 °C 1008.3 hPa NNE 7.1 km/h 11.3 km/h 89% 0.0 mm
02:59 12.9 °C 11.1 °C 1008.2 hPa NNE 6.5 km/h 11.3 km/h 89% 0.0 mm
03:04 12.8 °C 11.1 °C 1008.2 hPa NNE 6.5 km/h 11.1 km/h 89% 0.0 mm
03:09 12.7 °C 10.9 °C 1008.2 hPa NE 6.5 km/h 13.7 km/h 89% 0.0 mm
03:14 12.7 °C 11 °C 1008.1 hPa NE 7.8 km/h 18.5 km/h 89.8% 0.0 mm
03:19 12.6 °C 11 °C 1008.1 hPa NE 8.4 km/h 24.1 km/h 90% 0.0 mm
03:24 12.6 °C 11.1 °C 1008.1 hPa NE 11.1 km/h 24.1 km/h 90.2% 0.0 mm
03:29 12.7 °C 11.3 °C 1007.7 hPa NE 12.2 km/h 19.3 km/h 91% 0.0 mm
03:34 12.7 °C 11.3 °C 1007.7 hPa NNE 10.3 km/h 16.1 km/h 91% 0.0 mm
03:39 12.7 °C 11.3 °C 1008.0 hPa NNE 9.5 km/h 14.5 km/h 91% 0.0 mm
03:44 12.7 °C 11.3 °C 1008.0 hPa NNE 7.3 km/h 12.9 km/h 91% 0.0 mm
03:49 12.7 °C 11.3 °C 1008.0 hPa NNE 6.5 km/h 4.8 km/h 91% 0.0 mm
03:54 12.7 °C 11.3 °C 1008.3 hPa NNE 1.9 km/h 4.7 km/h 91% 0.0 mm
03:59 12.7 °C 11.3 °C 1008.3 hPa Calm   5.6 km/h 91% 0.0 mm
04:04 12.8 °C 11.4 °C 1008.3 hPa NE 2.1 km/h 6.4 km/h 91% 0.0 mm
04:09 12.8 °C 11.4 °C 1008.5 hPa SE 2.9 km/h 8 km/h 91% 0.0 mm
04:14 12.8 °C 11.4 °C 1008.5 hPa SE 4.2 km/h 10 km/h 91% 0.0 mm
04:19 12.9 °C 11.4 °C 1008.5 hPa ESE 4.7 km/h 9.7 km/h 91% 0.0 mm
04:24 12.9 °C 11.4 °C 1008.5 hPa ESE 4.7 km/h 9.7 km/h 91% 0.0 mm
04:29 12.9 °C 11.4 °C 1008.4 hPa SE 4.7 km/h 9.3 km/h 91% 0.0 mm
04:34 12.9 °C 11.5 °C 1008.4 hPa SE 4.7 km/h 9.7 km/h 91% 0.0 mm
04:39 13 °C 11.6 °C 1008.4 hPa SE 4.7 km/h 6.4 km/h 91% 0.0 mm
04:44 13.1 °C 11.7 °C 1008.3 hPa SE 2.9 km/h 7.6 km/h 91% 0.0 mm
04:49 13.1 °C 11.7 °C 1008.3 hPa Este 2.2 km/h 8 km/h 91% 0.0 mm
04:54 13.1 °C 11.6 °C 1008.3 hPa Este 3.4 km/h 13 km/h 90.6% 0.0 mm
04:59 13.1 °C 11.5 °C 1008.3 hPa Este 3.9 km/h 12.9 km/h 90% 0.0 mm
05:04 13.1 °C 11.4 °C 1008.3 hPa ENE 4.5 km/h 8 km/h 89.6% 0.0 mm
05:09 13.1 °C 11.3 °C 1008.3 hPa ENE 4.7 km/h 9.3 km/h 89% 0.0 mm
05:14 13.2 °C 11.3 °C 1008.3 hPa Este 4.7 km/h 9.7 km/h 88.5% 0.0 mm
05:19 13.2 °C 11.2 °C 1008.3 hPa NE 4.7 km/h 13 km/h 87.4% 0.0 mm
05:24 13.3 °C 11 °C 1008.3 hPa NNE 6 km/h 13 km/h 85.9% 0.0 mm
05:29 13.4 °C 11 °C 1008.3 hPa NNE 6.5 km/h 16.1 km/h 85% 0.0 mm
05:34 13.6 °C 10.9 °C 1008.3 hPa NE 7.8 km/h 16.7 km/h 84% 0.0 mm
05:39 13.6 °C 11 °C 1008.4 hPa ENE 8.4 km/h 14.5 km/h 84.4% 0.0 mm
05:44 13.6 °C 11.1 °C 1008.4 hPa NE 7.3 km/h 19 km/h 85% 0.0 mm
05:49 13.6 °C 11.1 °C 1008.4 hPa NE 6.9 km/h 19.3 km/h 85% 0.0 mm
05:54 13.6 °C 11.1 °C 1008.7 hPa NE 6.9 km/h 15.6 km/h 84.9% 0.0 mm
05:59 13.6 °C 10.9 °C 1008.7 hPa NNE 6.9 km/h 19 km/h 84% 0.0 mm
06:04 13.6 °C 10.9 °C 1008.7 hPa NNE 9.5 km/h 22.2 km/h 84% 0.0 mm
06:09 13.5 °C 10.8 °C 1008.7 hPa NE 10.3 km/h 24.5 km/h 83.7% 0.0 mm
06:14 13.4 °C 10.6 °C 1008.4 hPa NE 11.7 km/h 24.1 km/h 83% 0.0 mm
06:19 13.3 °C 10.5 °C 1008.4 hPa NE 12.2 km/h 33.5 km/h 83% 0.0 mm
06:24 13.3 °C 10.3 °C 1008.4 hPa NE 15.2 km/h 33.8 km/h 82.2% 0.0 mm
06:29 13.2 °C 10.2 °C 1008.3 hPa NE 16.4 km/h 30.6 km/h 82% 0.0 mm
06:34 13.2 °C 10.2 °C 1008.3 hPa NE 17 km/h 30.6 km/h 82.4% 0.0 mm
06:39 13.2 °C 10.2 °C 1008.7 hPa NE 17.2 km/h 25.7 km/h 82% 0.0 mm
06:44 13.2 °C 10.2 °C 1008.7 hPa NE 14.9 km/h 24.5 km/h 82% 0.0 mm
06:49 13.2 °C 10.3 °C 1008.7 hPa NE 14 km/h 24.1 km/h 82.8% 0.0 mm
06:54 13.1 °C 10.3 °C 1008.9 hPa ENE 11.1 km/h 16.1 km/h 83% 0.0 mm
06:59 13.1 °C 10.3 °C 1008.9 hPa NE 10 km/h 13 km/h 83.1% 0.0 mm
07:04 13 °C 10.3 °C 1008.9 hPa NE 7.6 km/h 12.9 km/h 84% 0.0 mm
07:09 12.9 °C 10.3 °C 1009.0 hPa NE 6.9 km/h 14.8 km/h 84% 0.0 mm
07:14 12.9 °C 10.4 °C 1009.0 hPa NE 8 km/h 14.5 km/h 84.9% 0.0 mm
07:19 12.9 °C 10.4 °C 1009.0 hPa NE 8.4 km/h 13 km/h 85% 0.0 mm
07:24 12.9 °C 10.4 °C 1009.3 hPa NE 7.8 km/h 12.9 km/h 85% 0.0 mm
07:29 12.9 °C 10.4 °C 1009.3 hPa NNE 7.6 km/h 14.8 km/h 85% 0.0 mm
07:34 12.9 °C 10.4 °C 1009.3 hPa NNE 7.6 km/h 15.6 km/h 85% 0.0 mm
07:39 12.9 °C 10.4 °C 1009.4 hPa NE 7.6 km/h 16.1 km/h 85% 0.0 mm
07:44 12.9 °C 10.3 °C 1009.4 hPa NE 8.2 km/h 14.5 km/h 84.3% 0.0 mm
07:49 12.9 °C 10.3 °C 1009.4 hPa ENE 8.4 km/h 12.9 km/h 84% 0.0 mm
07:54 13 °C 10.3 °C 1009.6 hPa NE 5.9 km/h 11.9 km/h 84% 0.0 mm
07:59 13 °C 10.3 °C 1009.6 hPa NE 5 km/h 16.1 km/h 83.8% 0.0 mm
08:04 13 °C 10.1 °C 1009.6 hPa NE 7.6 km/h 20.4 km/h 82.7% 0.0 mm
08:09 13.1 °C 10.1 °C 1009.8 hPa NE 8.4 km/h 21.7 km/h 82% 0.0 mm
08:14 13.1 °C 10.1 °C 1009.8 hPa NNE 11.1 km/h 22.5 km/h 81.8% 0.0 mm
08:19 13.1 °C 9.9 °C 1009.8 hPa NE 12.2 km/h 20.4 km/h 81% 0.0 mm
08:24 13.1 °C 9.9 °C 1010.0 hPa NE 10.6 km/h 20.9 km/h 81% 0.0 mm
08:29 13.1 °C 10 °C 1010.0 hPa NE 10 km/h 13 km/h 81.3% 0.0 mm
08:34 13.1 °C 10.1 °C 1010.0 hPa NE 7.4 km/h 16.7 km/h 82% 0.0 mm
08:39 13.1 °C 10.1 °C 1010.4 hPa NE 6.5 km/h 16.7 km/h 82% 0.0 mm
08:44 13 °C 10.1 °C 1010.4 hPa NNE 8.7 km/h 16.1 km/h 82.4% 0.3 mm
08:49 13 °C 10.2 °C 1010.4 hPa NE 9.5 km/h 14.8 km/h 83.1% 0.3 mm
08:54 12.9 °C 10.3 °C 1010.5 hPa NNE 8.7 km/h 16.7 km/h 84% 0.3 mm
08:59 12.9 °C 10.4 °C 1010.5 hPa NNE 8.4 km/h 16.1 km/h 84.5% 0.3 mm
09:04 12.9 °C 10.4 °C 1010.5 hPa NNE 8.6 km/h 14.8 km/h 85% 0.3 mm
09:09 12.9 °C 10.4 °C 1010.6 hPa NE 8.7 km/h 16.7 km/h 85% 0.3 mm
09:14 13 °C 10.5 °C 1010.6 hPa NNE 9.3 km/h 16.1 km/h 85% 0.3 mm
09:19 13.1 °C 10.6 °C 1010.6 hPa NNE 9.5 km/h 16.1 km/h 85% 0.3 mm
09:24 13.1 °C 10.6 °C 1010.6 hPa NNE 8.9 km/h 16.1 km/h 85% 0.3 mm
09:29 13.1 °C 10.6 °C 1010.6 hPa NNE 8.7 km/h 16.1 km/h 85.2% 0.3 mm
09:34 13.1 °C 10.8 °C 1010.6 hPa NNE 9.3 km/h 16.1 km/h 86% 0.3 mm
09:39 13.1 °C 10.8 °C 1010.8 hPa NNE 9.5 km/h 12.9 km/h 86% 0.3 mm
09:44 13.1 °C 10.8 °C 1010.8 hPa North 6.8 km/h 11.3 km/h 86% 0.3 mm
09:49 13.1 °C 10.8 °C 1010.8 hPa NNE 5.8 km/h 14.8 km/h 86% 0.0 mm
09:54 13.1 °C 10.8 °C 1010.9 hPa NNE 6.2 km/h 16.7 km/h 86% 0.0 mm
09:59 13.1 °C 10.8 °C 1010.9 hPa North 6.5 km/h 17.2 km/h 86% 0.0 mm
10:04 13.1 °C 10.8 °C 1010.9 hPa NNE 8.2 km/h 17.7 km/h 86% 0.0 mm
10:09 13.1 °C 10.8 °C 1011.3 hPa NNE 8.7 km/h 17.7 km/h 86% 0.0 mm
10:14 13.1 °C 10.8 °C 1011.3 hPa NNE 7.9 km/h 14.8 km/h 86% 0.0 mm
10:19 13.1 °C 10.7 °C 1011.3 hPa NNE 7.6 km/h 15.6 km/h 85.5% 0.0 mm
10:24 13.2 °C 10.7 °C 1011.4 hPa NNE 8.4 km/h 16.1 km/h 85% 0.0 mm
10:29 13.2 °C 10.7 °C 1011.4 hPa NNE 8.7 km/h 13 km/h 85% 0.0 mm
10:34 13.2 °C 10.7 °C 1011.4 hPa NNE 8.5 km/h 13 km/h 85% 0.0 mm
10:39 13.3 °C 10.8 °C 1011.5 hPa NNE 8.4 km/h 11.9 km/h 85% 0.0 mm
10:44 13.3 °C 10.8 °C 1011.5 hPa NNO 7.3 km/h 11.3 km/h 85% 0.0 mm
10:49 13.4 °C 10.9 °C 1011.5 hPa NNE 6.9 km/h 11.1 km/h 84.6% 0.0 mm
10:54 13.4 °C 10.8 °C 1011.7 hPa NNO 6.1 km/h 11.3 km/h 84% 0.0 mm
10:59 13.4 °C 10.8 °C 1011.7 hPa NNO 5.8 km/h 11.3 km/h 84% 0.0 mm
11:04 13.5 °C 10.8 °C 1011.7 hPa NO 5.2 km/h 9.7 km/h 84% 0.0 mm
11:09 13.6 °C 10.9 °C 1011.7 hPa NO 5 km/h 8 km/h 84% 0.0 mm
11:14 13.6 °C 10.9 °C 1011.7 hPa North 4.2 km/h 8 km/h 84% 0.0 mm
11:19 13.7 °C 11 °C 1011.7 hPa North 3.9 km/h 8.4 km/h 84% 0.0 mm
11:24 13.7 °C 10.9 °C 1011.8 hPa NO 3.2 km/h 10 km/h 83.3% 0.0 mm
11:29 13.8 °C 10.9 °C 1011.8 hPa NO 2.9 km/h 11.1 km/h 83% 0.0 mm
11:34 13.8 °C 11 °C 1011.8 hPa NO 4.2 km/h 11.3 km/h 82.8% 0.0 mm
11:39 13.8 °C 10.8 °C 1011.8 hPa ONO 4.7 km/h 10 km/h 82% 0.0 mm
11:44 13.9 °C 10.9 °C 1011.8 hPa NO 5.5 km/h 9.7 km/h 82% 0.0 mm
11:49 13.9 °C 10.9 °C 1011.8 hPa ONO 5.8 km/h 8 km/h 82% 0.0 mm
11:54 14 °C 11 °C 1011.9 hPa Oeste 3.9 km/h 8 km/h 82% 0.0 mm
11:59 14 °C 11 °C 1011.9 hPa ONO 3.2 km/h 8.4 km/h 82% 0.0 mm
12:04 14 °C 11 °C 1011.9 hPa Oeste 4.3 km/h 8 km/h 82% 0.0 mm
12:09 14 °C 11 °C 1011.9 hPa Oeste 4.7 km/h 8 km/h 82% 0.0 mm
12:14 13.9 °C 10.8 °C 1011.7 hPa ONO 3.4 km/h 8 km/h 81.4% 0.0 mm
12:19 13.9 °C 10.9 °C 1011.7 hPa Oeste 2.9 km/h 8 km/h 82% 0.0 mm
12:24 13.9 °C 10.9 °C 1011.7 hPa Oeste 2.9 km/h 7.4 km/h 82% 0.0 mm
12:29 14 °C 11 °C 1011.6 hPa NO 2.9 km/h 8 km/h 82% 0.0 mm
12:34 14 °C 10.9 °C 1011.6 hPa NO 3.1 km/h 8 km/h 81.7% 0.0 mm
12:39 14 °C 10.8 °C 1011.6 hPa NO 3.2 km/h 8 km/h 81% 0.0 mm
12:44 14.1 °C 10.9 °C 1011.4 hPa NO 3 km/h 5 km/h 81% 0.0 mm
12:49 14.2 °C 10.9 °C 1011.4 hPa NO 2.9 km/h 5 km/h 81% 0.0 mm
12:54 14.2 °C 11.1 °C 1011.4 hPa NO 2.4 km/h 4.8 km/h 81.5% 0.0 mm
12:59 14.3 °C 11.3 °C 1011.2 hPa NO 2.2 km/h   82% 0.0 mm
13:04 14.4 °C 11.3 °C 1011.2 hPa NO 0.6 km/h   81.7% 0.0 mm
13:09 14.4 °C 11.2 °C 1011.2 hPa Calm     81% 0.0 mm
13:14 14.5 °C 11.3 °C 1011.2 hPa Calm     81% 0.0 mm
13:19 14.6 °C 11.4 °C 1011.2 hPa Calm   5.8 km/h 81% 0.0 mm
13:24 14.6 °C 11.4 °C 1011.2 hPa Calm   6.9 km/h 81% 0.0 mm
13:29 14.6 °C 11.3 °C 1011.1 hPa Calm   8 km/h 80.5% 0.0 mm
13:34 14.6 °C 11.4 °C 1011.1 hPa Oeste 2.3 km/h 8 km/h 80.8% 0.0 mm
13:39 14.7 °C 11.3 °C 1011.2 hPa Oeste 3.2 km/h 6.4 km/h 80.3% 0.0 mm
13:44 14.7 °C 11.3 °C 1011.2 hPa Oeste 0.9 km/h 3.9 km/h 80.4% 0.0 mm
13:49 14.7 °C 11.4 °C 1011.2 hPa Calm   7.4 km/h 81% 0.0 mm
13:54 14.7 °C 11.4 °C 1011.2 hPa NNO 2.3 km/h 9.3 km/h 80.7% 0.0 mm
13:59 14.7 °C 11.3 °C 1010.8 hPa NO 3.2 km/h 10 km/h 80% 0.0 mm
14:04 14.7 °C 11.3 °C 1010.8 hPa NO 5.2 km/h 9.7 km/h 80% 0.0 mm
14:09 14.7 °C 11.3 °C 1010.8 hPa NO 5.8 km/h 9.7 km/h 80% 0.0 mm
14:14 14.8 °C 11.3 °C 1010.7 hPa NO 5.2 km/h 8 km/h 79.6% 0.0 mm
14:19 14.8 °C 11.2 °C 1010.7 hPa ONO 5 km/h 8 km/h 79% 0.0 mm
14:24 14.8 °C 11.2 °C 1010.8 hPa ONO 4.2 km/h 6.4 km/h 79% 0.0 mm
14:29 14.8 °C 11.4 °C 1010.8 hPa ONO 3.9 km/h 6.4 km/h 79.7% 0.0 mm
14:34 14.8 °C 11.3 °C 1010.8 hPa ONO 3.4 km/h 8.4 km/h 79.5% 0.0 mm
14:39 14.8 °C 11.3 °C 1010.8 hPa Oeste 3.2 km/h 8 km/h 79.6% 0.0 mm
14:44 14.8 °C 11.4 °C 1010.7 hPa Oeste 3.7 km/h 8 km/h 80% 0.0 mm
14:49 14.9 °C 11.5 °C 1010.7 hPa Oeste 3.9 km/h 6.4 km/h 80% 0.0 mm
14:54 14.8 °C 11.3 °C 1010.7 hPa Oeste 3.2 km/h 7.4 km/h 79.4% 0.0 mm
14:59 14.8 °C 11.4 °C 1010.7 hPa Sur 2.9 km/h 8 km/h 80.2% 0.0 mm
15:04 14.8 °C 11.6 °C 1010.7 hPa SSE 4.2 km/h 9.3 km/h 81% 0.0 mm
15:09 14.7 °C 11.7 °C 1010.8 hPa Sur 4.7 km/h 9.7 km/h 82% 0.0 mm
15:14 14.7 °C 11.8 °C 1010.8 hPa Sur 4.9 km/h 8 km/h 82.8% 0.0 mm
15:19 14.6 °C 11.8 °C 1010.8 hPa Sur 5 km/h 11.1 km/h 83.3% 0.0 mm
15:24 14.4 °C 11.8 °C 1010.8 hPa Sur 5.6 km/h 11.3 km/h 84.4% 0.0 mm
15:29 14.4 °C 11.9 °C 1010.8 hPa Sur 5.8 km/h 11.1 km/h 85% 0.0 mm
15:34 14.3 °C 12 °C 1010.8 hPa SSE 5.8 km/h 11.3 km/h 85.9% 0.0 mm
15:39 14.3 °C 12 °C 1010.9 hPa Sur 5.8 km/h 10 km/h 86% 0.0 mm
15:44 14.2 °C 12 °C 1010.9 hPa Sur 6.3 km/h 10 km/h 86.6% 0.0 mm
15:49 14.2 °C 12 °C 1010.9 hPa SE 6.5 km/h 11.1 km/h 87% 0.0 mm
15:54 14.1 °C 11.9 °C 1011.0 hPa SSE 6.5 km/h 11.3 km/h 87% 0.0 mm
15:59 14.1 °C 12.1 °C 1011.0 hPa SSE 6.5 km/h 13 km/h 87.7% 0.5 mm
16:04 13.9 °C 11.9 °C 1011.0 hPa SSE 7.3 km/h 12.9 km/h 88% 0.7 mm
16:09 13.8 °C 11.9 °C 1011.0 hPa SSE 7.6 km/h 11.3 km/h 88.7% 0.7 mm
16:14 13.7 °C 12 °C 1011.0 hPa Sur 5.7 km/h 8 km/h 89% 0.7 mm
16:19 13.7 °C 12.1 °C 1011.0 hPa Sur 5 km/h 8 km/h 89.7% 0.7 mm
16:24 13.7 °C 12.1 °C 1011.2 hPa Sur 4.2 km/h 8 km/h 90% 0.7 mm
16:29 13.7 °C 12.1 °C 1011.2 hPa SE 3.9 km/h 9.3 km/h 90.1% 1.0 mm
16:34 13.7 °C 12.3 °C 1011.2 hPa ESE 4.7 km/h 9.7 km/h 91% 1.2 mm
16:39 13.6 °C 12.2 °C 1011.3 hPa SE 5 km/h 8 km/h 91% 1.5 mm
16:44 13.5 °C 12.1 °C 1011.3 hPa SE 3.7 km/h 8 km/h 91% 2.0 mm
16:49 13.5 °C 12.2 °C 1011.3 hPa SE 3.2 km/h   91.6% 2.5 mm
16:54 13.5 °C 12.2 °C 1011.4 hPa SE 0.9 km/h 7.4 km/h 92% 3.0 mm
16:59 13.5 °C 12.2 °C 1011.4 hPa Calm   8.4 km/h 92% 3.0 mm
17:04 13.4 °C 12.1 °C 1011.4 hPa ONO 2.9 km/h 11.1 km/h 92% 2.5 mm
17:09 13.4 °C 12.1 °C 1011.4 hPa NNO 3.9 km/h 11.3 km/h 92% 2.3 mm
17:14 13.4 °C 12.1 °C 1011.3 hPa ONO 3.9 km/h 9.7 km/h 92% 2.3 mm
17:19 13.4 °C 12.1 °C 1011.3 hPa ONO 3.9 km/h 8 km/h 92% 2.3 mm
17:24 13.4 °C 12.2 °C 1011.3 hPa Oeste 3.4 km/h 7.4 km/h 92.7% 2.3 mm
17:29 13.4 °C 12.3 °C 1011.3 hPa Oeste 3.2 km/h 8 km/h 93% 2.0 mm
17:34 13.5 °C 12.3 °C 1011.3 hPa Oeste 3.7 km/h 8 km/h 93% 2.3 mm
17:39 13.5 °C 12.4 °C 1011.3 hPa Oeste 3.9 km/h 4.8 km/h 93% 2.3 mm
17:44 13.5 °C 12.4 °C 1011.2 hPa Oeste 1.1 km/h   93% 2.0 mm
17:49 13.5 °C 12.4 °C 1011.2 hPa Calm   3.9 km/h 93% 1.5 mm
17:54 13.5 °C 12.4 °C 1011.4 hPa Calm   3.2 km/h 93% 1.0 mm
17:59 13.6 °C 12.5 °C 1011.4 hPa Calm     93% 0.5 mm
18:04 13.6 °C 12.5 °C 1011.4 hPa Calm     93% 0.8 mm
18:09 13.6 °C 12.5 °C 1011.5 hPa Calm     93% 1.1 mm
18:14 13.5 °C 12.4 °C 1011.5 hPa Calm     93% 1.1 mm
18:19 13.5 °C 12.5 °C 1011.5 hPa Calm     93.5% 1.6 mm
18:24 13.5 °C 12.5 °C 1011.6 hPa Calm   13.7 km/h 93.6% 1.8 mm
18:29 13.4 °C 12.3 °C 1011.6 hPa Calm   14.5 km/h 93.2% 1.8 mm
18:34 13.4 °C 12.4 °C 1011.6 hPa NE 4.1 km/h 12.9 km/h 94% 1.8 mm
18:39 13.4 °C 12.4 °C 1011.8 hPa NE 5.8 km/h 13 km/h 94% 1.3 mm
18:44 13.4 °C 12.4 °C 1011.8 hPa NE 7.6 km/h 12.9 km/h 94% 1.8 mm
18:49 13.3 °C 12.4 °C 1011.8 hPa NE 8.4 km/h 13 km/h 94% 1.8 mm
18:54 13.3 °C 12.3 °C 1011.9 hPa NE 7.3 km/h 12.9 km/h 94% 1.8 mm
18:59 13.3 °C 12.3 °C 1011.9 hPa NNE 6.9 km/h 11.9 km/h 94% 1.8 mm
19:04 13.2 °C 12.2 °C 1011.9 hPa NE 6.9 km/h 14.8 km/h 94% 1.8 mm
19:09 13.1 °C 12.2 °C 1012.0 hPa NNE 6.9 km/h 14.5 km/h 94% 1.8 mm
19:14 13.2 °C 12.3 °C 1012.0 hPa NNE 8 km/h 13 km/h 94% 1.5 mm
19:19 13.2 °C 12.3 °C 1012.0 hPa NNE 8.4 km/h 11.3 km/h 94% 1.3 mm
19:24 13.2 °C 12.3 °C 1012.2 hPa NE 7 km/h 11.3 km/h 94.6% 1.0 mm
19:29 13.2 °C 12.4 °C 1012.2 hPa NNE 6.5 km/h 13 km/h 95% 0.8 mm
19:34 13.2 °C 12.4 °C 1012.2 hPa NNE 7.3 km/h 14.8 km/h 95% 0.8 mm
19:39 13.2 °C 12.4 °C 1012.5 hPa NNE 7.6 km/h 16.7 km/h 95% 0.8 mm
19:44 13.1 °C 12.3 °C 1012.5 hPa NNE 8.4 km/h 20.4 km/h 95% 0.8 mm
19:49 13.1 °C 12.3 °C 1012.5 hPa NE 8.7 km/h 20.9 km/h 95% 0.5 mm
19:54 13.1 °C 12.3 °C 1012.6 hPa NE 8.7 km/h 19.3 km/h 95% 0.5 mm
19:59 13 °C 12.3 °C 1012.6 hPa NNE 8.7 km/h 16.1 km/h 95% 0.5 mm
20:04 13 °C 12.2 °C 1012.6 hPa NNE 8.7 km/h 13 km/h 95% 0.8 mm
20:09 13 °C 12.2 °C 1012.6 hPa NNE 8.7 km/h 16.7 km/h 95% 0.8 mm
20:14 13 °C 12.3 °C 1012.6 hPa NNE 8.7 km/h 20.4 km/h 95% 0.8 mm
20:19 13.1 °C 12.3 °C 1012.6 hPa NNE 8.7 km/h 20.9 km/h 95% 0.8 mm
20:24 13.1 °C 12.3 °C 1012.9 hPa NE 10.4 km/h 19.3 km/h 95% 1.0 mm
20:29 13.1 °C 12.5 °C 1012.9 hPa NE 11.1 km/h 22.2 km/h 95.9% 1.0 mm
20:34 13.1 °C 12.5 °C 1012.9 hPa NNE 10.5 km/h 26.2 km/h 96% 1.0 mm
20:39 13.1 °C 12.5 °C 1012.9 hPa NNE 10.3 km/h 25.9 km/h 96% 1.3 mm
20:44 13 °C 12.4 °C 1012.8 hPa NNE 13.5 km/h 24.1 km/h 96% 1.3 mm
20:49 13 °C 12.4 °C 1012.8 hPa NNE 14.8 km/h 20.9 km/h 96% 1.1 mm
20:54 13 °C 12.4 °C 1013.0 hPa NNE 13.5 km/h 19.3 km/h 96% 1.1 mm
20:59 13 °C 12.4 °C 1013.0 hPa NNE 13 km/h 17.7 km/h 96% 1.1 mm
21:04 13 °C 12.4 °C 1013.0 hPa North 10.8 km/h 16.7 km/h 96% 0.8 mm
21:09 13 °C 12.4 °C 1013.0 hPa NNE 10 km/h 16.1 km/h 96% 0.8 mm
21:14 13 °C 12.4 °C 1013.0 hPa NNE 9 km/h 16.1 km/h 96% 0.5 mm
21:19 12.9 °C 12.3 °C 1013.0 hPa NNE 8.7 km/h 16.7 km/h 96% 0.5 mm
21:24 12.9 °C 12.3 °C 1013.1 hPa NNE 8.7 km/h 14.5 km/h 96% 0.8 mm
21:29 12.9 °C 12.3 °C 1013.1 hPa NNE 8.7 km/h 11.3 km/h 96% 0.8 mm
21:34 12.9 °C 12.3 °C 1013.1 hPa NNE 6.7 km/h 9.7 km/h 96% 0.8 mm
21:39 12.9 °C 12.3 °C 1013.1 hPa NNE 5.8 km/h 9.7 km/h 96% 0.5 mm
21:44 12.9 °C 12.3 °C 1013.1 hPa NNE 4.4 km/h 8 km/h 96% 0.5 mm
21:49 12.9 °C 12.3 °C 1013.1 hPa NNE 3.9 km/h 5.8 km/h 96% 0.5 mm
21:54 12.9 °C 12.3 °C 1013.2 hPa NNE 3.2 km/h 7.4 km/h 96% 0.5 mm
21:59 12.9 °C 12.3 °C 1013.2 hPa NNE 2.9 km/h 11.1 km/h 96% 0.5 mm
22:04 12.9 °C 12.3 °C 1013.2 hPa NE 4.2 km/h 11.3 km/h 96% 0.5 mm
22:09 12.9 °C 12.3 °C 1013.2 hPa NE 4.7 km/h 9.7 km/h 96% 0.5 mm
22:14 12.9 °C 12.3 °C 1013.2 hPa NE 5.9 km/h 25.1 km/h 96% 0.5 mm
22:19 12.8 °C 12.1 °C 1013.2 hPa NNE 6.5 km/h 27.8 km/h 95.7% 0.5 mm
22:24 12.7 °C 12 °C 1013.2 hPa NNE 9.8 km/h 27.8 km/h 95% 0.5 mm
22:29 12.7 °C 11.9 °C 1013.2 hPa NNE 11.1 km/h 28.2 km/h 94.7% 0.0 mm
22:34 12.7 °C 11.8 °C 1013.2 hPa NNE 16.2 km/h 27.8 km/h 94% 0.0 mm
22:39 12.7 °C 11.7 °C 1013.2 hPa NNE 18 km/h 25.9 km/h 93.7% 0.0 mm
22:44 12.8 °C 11.7 °C 1013.2 hPa NNE 16.3 km/h 28.6 km/h 93% 0.0 mm
22:49 12.9 °C 11.8 °C 1013.2 hPa NNE 15.6 km/h 29.6 km/h 93% 0.0 mm
22:54 13 °C 11.9 °C 1013.3 hPa NE 16.2 km/h 27.4 km/h 93% 0.0 mm
22:59 13 °C 11.9 °C 1013.3 hPa NE 16.4 km/h 24.5 km/h 93.3% 0.0 mm
23:04 13 °C 12.1 °C 1013.3 hPa NE 14.4 km/h 24.1 km/h 94% 0.0 mm
23:09 13 °C 12.1 °C 1013.3 hPa NE 13.7 km/h 27.8 km/h 94% 0.2 mm
23:14 13 °C 12.1 °C 1013.3 hPa NE 13.9 km/h 29.8 km/h 94% 0.5 mm
23:19 13 °C 12.1 °C 1013.3 hPa NE 14 km/h 33.3 km/h 94% 0.7 mm
23:24 12.9 °C 12 °C 1013.3 hPa NNE 15.2 km/h 33.8 km/h 94% 1.0 mm
23:29 12.9 °C 11.9 °C 1013.3 hPa NNE 15.6 km/h 25.7 km/h 94% 1.0 mm
23:34 12.9 °C 11.9 °C 1013.3 hPa NE 14.4 km/h 24.5 km/h 94% 1.0 mm
23:39 12.9 °C 11.9 °C 1013.4 hPa NE 14 km/h 27 km/h 94% 1.0 mm
23:44 12.9 °C 12 °C 1013.4 hPa NE 14.6 km/h 27.8 km/h 94.1% 1.3 mm
23:49 12.8 °C 12 °C 1013.4 hPa NE 14.8 km/h 29.8 km/h 95% 1.5 mm
23:54 12.8 °C 12 °C 1013.4 hPa NNE 15.4 km/h 30.6 km/h 95% 1.8 mm
23:59 12.8 °C 11.8 °C 1013.4 hPa NNE 15.6 km/h 29.6 km/h 94.1% 2.0 mm
Murcia-Puente Tocinos, España
Compliments of Weather Underground - 3 mb

La estación de MeteoMurcia.com, publica sus datos en los siguientes proyectos:

Weather Underground PWS IMURCIAP2 Meteoclimatic www.awekas.at

W3Counter
Web Analytics